地図

経路データ

SID SEASON NUMBER BASIN SUBBASIN NAME ISO_TIME NATURE LAT LON WMO_WIND WMO_PRES WMO_AGENCY TRACK_TYPE DIST2LAND LANDFALL IFLAG USA_AGENCY USA_ATCF_ID USA_LAT USA_LON USA_RECORD USA_STATUS USA_WIND USA_PRES USA_SSHS USA_R34_NE USA_R34_SE USA_R34_SW USA_R34_NW USA_R50_NE USA_R50_SE USA_R50_SW USA_R50_NW USA_R64_NE USA_R64_SE USA_R64_SW USA_R64_NW USA_POCI USA_ROCI USA_RMW USA_EYE TOKYO_LAT TOKYO_LON TOKYO_GRADE TOKYO_WIND TOKYO_PRES TOKYO_R50_DIR TOKYO_R50_LONG TOKYO_R50_SHORT TOKYO_R30_DIR TOKYO_R30_LONG TOKYO_R30_SHORT TOKYO_LAND CMA_LAT CMA_LON CMA_CAT CMA_WIND CMA_PRES HKO_LAT HKO_LON HKO_CAT HKO_WIND HKO_PRES NEWDELHI_LAT NEWDELHI_LON NEWDELHI_GRADE NEWDELHI_WIND NEWDELHI_PRES NEWDELHI_CI NEWDELHI_DP NEWDELHI_POCI REUNION_LAT REUNION_LON REUNION_TYPE REUNION_WIND REUNION_PRES REUNION_TNUM REUNION_CI REUNION_RMW REUNION_R34_NE REUNION_R34_SE REUNION_R34_SW REUNION_R34_NW REUNION_R50_NE REUNION_R50_SE REUNION_R50_SW REUNION_R50_NW REUNION_R64_NE REUNION_R64_SE REUNION_R64_SW REUNION_R64_NW BOM_LAT BOM_LON BOM_TYPE BOM_WIND BOM_PRES BOM_TNUM BOM_CI BOM_RMW BOM_R34_NE BOM_R34_SE BOM_R34_SW BOM_R34_NW BOM_R50_NE BOM_R50_SE BOM_R50_SW BOM_R50_NW BOM_R64_NE BOM_R64_SE BOM_R64_SW BOM_R64_NW BOM_ROCI BOM_POCI BOM_EYE BOM_POS_METHOD BOM_PRES_METHOD NADI_LAT NADI_LON NADI_CAT NADI_WIND NADI_PRES WELLINGTON_LAT WELLINGTON_LON WELLINGTON_WIND WELLINGTON_PRES DS824_LAT DS824_LON DS824_STAGE DS824_WIND DS824_PRES TD9636_LAT TD9636_LON TD9636_STAGE TD9636_WIND TD9636_PRES TD9635_LAT TD9635_LON TD9635_WIND TD9635_PRES TD9635_ROCI NEUMANN_LAT NEUMANN_LON NEUMANN_CLASS NEUMANN_WIND NEUMANN_PRES MLC_LAT MLC_LON MLC_CLASS MLC_WIND MLC_PRES USA_GUST BOM_GUST BOM_GUST_PER REUNION_GUST REUNION_GUST_PER USA_SEAHGT USA_SEARAD_NE USA_SEARAD_SE USA_SEARAD_SW USA_SEARAD_NW STORM_SPEED STORM_DIR
1948233N18118 1948 52 WP MM FLO 1948-08-20 00:00:00 TS 18.4000 117.900 main 269 269 O________OOO__ jtwc_wp WP111948 18.4000 117.900 30 -1 18.4000 117.900 TC 30 18.4000 117.900 1 30 18.4000 117.900 30 999 240 14 261
1948233N18118 1948 52 WP MM FLO 1948-08-20 03:00:00 TS 18.2964 117.196 main 337 337 P________PPP__ WP111948 18.2805 117.192 32 -1 18.2805 117.192 TC 32 18.3442 117.209 1 32 18.2805 117.192 32 998 240 13 262
1948233N18118 1948 52 WP MM FLO 1948-08-20 06:00:00 TS 18.2224 116.506 main 407 407 O________OPO__ jtwc_wp WP111948 18.2000 116.500 35 0 18.2000 116.500 TC 35 18.2896 116.525 1 35 18.2000 116.500 35 997 240 13 266
1948233N18118 1948 52 WP MM FLO 1948-08-20 09:00:00 TS 18.1987 115.840 main 475 468 P________PPP__ WP111948 18.1848 115.835 37 0 18.1848 115.835 TC 37 18.2403 115.853 1 37 18.1848 115.835 37 996 270 12 269
1948233N18118 1948 52 WP MM FLO 1948-08-20 12:00:00 TS 18.2000 115.200 main 468 409 O________OOO__ jtwc_wp WP111948 18.2000 115.200 40 0 18.2000 115.200 TC 40 18.2000 115.200 2 40 18.2000 115.200 40 996 300 12 269
1948233N18118 1948 52 WP MM FLO 1948-08-20 15:00:00 TS 18.1878 114.587 main 409 352 P________PPP__ WP111948 18.1922 114.592 42 0 18.1922 114.592 TC 42 18.1743 114.570 2 42 18.1922 114.592 42 994 300 11 270
1948233N18118 1948 52 WP MM FLO 1948-08-20 18:00:00 TS 18.1935 113.991 main 352 297 O________OPO__ jtwc_wp WP111948 18.2000 114.000 45 0 18.2000 114.000 TC 45 18.1741 113.962 2 45 18.2000 114.000 45 993 300 11 272
1948233N18118 1948 52 WP MM FLO 1948-08-20 21:00:00 TS 18.2179 113.387 main 297 238 P________PPP__ WP111948 18.2199 113.392 47 0 18.2199 113.392 TC 47 18.2119 113.373 2 47 18.2199 113.392 47 992 300 11 275
1948233N18118 1948 52 WP MM FLO 1948-08-21 00:00:00 TS 18.3000 112.800 main 238 183 O________OOO__ jtwc_wp WP111948 18.3000 112.800 50 0 18.3000 112.800 TC 50 18.3000 112.800 2 50 18.3000 112.800 50 991 300 11 283
1948233N18118 1948 52 WP MM FLO 1948-08-21 03:00:00 TS 18.4661 112.242 main 176 120 P________PPP__ WP111948 18.4773 112.243 50 0 18.4773 112.243 TC 50 18.4327 112.240 2 50 18.4773 112.243 50 990 300 11 290
1948233N18118 1948 52 WP MM FLO 1948-08-21 06:00:00 TS 18.6791 111.698 main 120 64 O________OPO__ jtwc_wp WP111948 18.7000 111.700 50 0 18.7000 111.700 TC 50 18.6165 111.692 2 50 18.7000 111.700 50 990 300 11 292
1948233N18118 1948 52 WP MM FLO 1948-08-21 09:00:00 TS 18.8797 111.155 main 64 10 P________PPP__ WP111948 18.8923 111.157 50 0 18.8923 111.157 TC 50 18.8421 111.149 2 50 18.8923 111.157 50 990 300 11 292
1948233N18118 1948 52 WP MM FLO 1948-08-21 12:00:00 TS 19.1000 110.600 main 10 0 O________OOO__ jtwc_wp WP111948 19.1000 110.600 50 0 19.1000 110.600 TC 50 19.1000 110.600 2 50 19.1000 110.600 50 990 300 12 293
1948233N18118 1948 52 WP MM FLO 1948-08-21 15:00:00 TS 19.3409 110.010 main 0 0 P________PPP__ WP111948 19.3274 110.000 50 0 19.3274 110.000 TC 50 19.3813 110.039 2 48 19.3274 110.000 50 990 300 12 295
1948233N18118 1948 52 WP MM FLO 1948-08-21 18:00:00 TS 19.6158 109.413 main 0 0 O________OPO__ jtwc_wp WP111948 19.6000 109.400 50 0 19.6000 109.400 TC 50 19.6792 109.467 2 47 19.6000 109.400 50 991 300 13 299
1948233N18118 1948 52 WP MM FLO 1948-08-21 21:00:00 TS 19.9552 108.849 main 53 53 P________PPP__ WP111948 19.9498 108.843 47 0 19.9498 108.843 TC 47 19.9875 108.886 2 46 19.9498 108.843 47 992 300 13 303
1948233N18118 1948 52 WP MM FLO 1948-08-22 00:00:00 TS 20.3000 108.300 main 109 61 O________OOO__ jtwc_wp WP111948 20.3000 108.300 45 0 20.3000 108.300 TC 45 20.3000 108.300 2 45 20.3000 108.300 45 994 300 12 304
1948233N18118 1948 52 WP MM FLO 1948-08-22 03:00:00 TS 20.6509 107.757 main 53 11 P________P_P__ WP111948 20.6697 107.758 42 0 20.6697 107.758 TC 42 2 20.5754 107.753 42 996 300 11 296
1948233N18118 1948 52 WP MM FLO 1948-08-22 06:00:00 TS 20.8000 107.200 main 11 0 O________O_O__ jtwc_wp WP111948 20.8000 107.200 40 0 20.8000 107.200 TC 40 2 20.8000 107.200 40 998 300 12 261
1948233N18118 1948 52 WP MM FLO 1948-08-22 09:00:00 TS 20.4555 106.440 main 0 0 P________P____ WP111948 20.4555 106.440 40 0 20.4555 106.440 TC 40 2 14 231
1948233N18118 1948 52 WP MM FLO 1948-08-22 12:00:00 TS 19.9000 106.000 main 10 10 O________O____ jtwc_wp WP111948 19.9000 106.000 40 0 19.9000 106.000 TC 40 11 187
1948233N18118 1948 52 WP MM FLO 1948-08-22 15:00:00 TS 19.4198 106.299 main 52 52 P________P____ WP111948 19.4198 106.299 35 0 19.4198 106.299 TC 35 13 134
1948233N18118 1948 52 WP MM FLO 1948-08-22 18:00:00 TS 19.0000 107.000 main 115 105 O________O____ jtwc_wp WP111948 19.0000 107.000 30 -1 19.0000 107.000 TC 30 16 117
1948233N18118 1948 52 WP MM FLO 1948-08-22 21:00:00 TS 18.7105 107.755 main 94 21 P________P____ WP111948 18.7105 107.755 30 -1 18.7105 107.755 TC 30 15 109
1948233N18118 1948 52 WP MM FLO 1948-08-23 00:00:00 TS 18.5000 108.500 main 21 O________O____ jtwc_wp WP111948 18.5000 108.500 30 -1 18.5000 108.500 TC 30 15 107

デジタル台風データ・検索

IBTrACS Databaseについて

本データベースは、米国NOAAが公開する1842年以降の世界の熱帯低気圧のベストトラックデータアーカイブInternational Best Track Archive for Climate Stewardship (IBTrACS)を、ウェブで閲覧しやすい形式に変換したものです。

最終更新日:2021-12-01